Terminal Aerodrome Forecast
Issued by NWS Cleveland, OH

Home | Current Version | Previous Version | Text Only | Print | Product List | Glossary On
Versions: 1 2 3 4 5 6 7 8 9 10 11 12 13 14 15 16 17 18
342
FTUS41 KCLE 081506 AAB
TAFERI
TAF AMD
KERI 081506Z 0815/0912 23014G20KT 1 1/2SM -SHSN OVC025
      TEMPO 0815/0818 1/4SM +SHSN OVC006
     FM081800 26016G30KT 2SM -SHSN OVC010
      TEMPO 0818/0822 1SM -SHSN
     FM082200 27015G25KT 2SM -SHSN OVC015
     FM090100 27014G22KT 1SM -SHSN OVC015=

USA.gov is the U.S. government's official web portal to all federal, state and local government web resources and services.